Time;durP1;ratioP1;P1;durP2;ratioP2;P2;SDS_P1;SDS_P2;PMS_P1;PMS_P2;Temp;Humidity;BMP_temperature;BMP_pressure;BME280_temperature;BME280_humidity;BME280_pressure;Samples;Min_cycle;Max_cycle;Signal;HPM_P1;HPM_P2
2021/03/21 00:00:31;;;;;;;57.47;28.47;;;-5.90;99.90;;;;;;4874421;28;20664;-78
2021/03/21 00:02:53;;;;;;;58.33;29.30;;;-6.00;1.00;;;;;;4853397;28;20631;-82
2021/03/21 00:05:16;;;;;;;67.60;30.80;;;-5.90;1.00;;;;;;4893990;28;20695;-81
2021/03/21 00:07:38;;;;;;;62.13;30.70;;;-5.90;1.00;;;;;;4876968;28;20642;-81
2021/03/21 00:10:00;;;;;;;63.70;32.67;;;-5.90;1.00;;;;;;4893788;28;20618;-82
2021/03/21 00:12:22;;;;;;;62.10;30.43;;;-5.90;1.00;;;;;;4877267;28;20658;-83
2021/03/21 00:14:44;;;;;;;64.13;30.80;;;-5.80;1.00;;;;;;4894730;28;20657;-82
2021/03/21 00:17:08;;;;;;;64.00;31.10;;;-5.80;99.90;;;;;;4876353;28;20611;-82
2021/03/21 00:19:30;;;;;;;65.33;29.90;;;-5.80;99.90;;;;;;4893517;28;20629;-82
2021/03/21 00:21:52;;;;;;;62.53;31.03;;;-5.80;1.00;;;;;;4877473;28;20626;-82
2021/03/21 00:24:14;;;;;;;63.30;32.07;;;-5.80;1.00;;;;;;4877534;28;20635;-81
2021/03/21 00:26:36;;;;;;;65.23;34.13;;;-5.80;99.90;;;;;;4867458;28;20696;-83
2021/03/21 00:28:59;;;;;;;66.40;33.13;;;-5.80;99.90;;;;;;4842484;28;20628;-82
2021/03/21 00:31:21;;;;;;;64.50;28.30;;;-5.90;99.90;;;;;;4843380;28;20619;-82
2021/03/21 00:33:45;;;;;;;61.60;29.83;;;-5.80;99.90;;;;;;4892884;28;20613;-83
2021/03/21 00:36:10;;;;;;;59.13;28.00;;;-5.80;1.00;;;;;;4893151;28;20714;-83
2021/03/21 00:38:35;;;;;;;57.80;29.00;;;-5.80;99.90;;;;;;4859563;28;20701;-82
2021/03/21 00:40:58;;;;;;;52.70;27.10;;;-5.70;1.00;;;;;;4859365;28;21161;-82
2021/03/21 00:43:20;;;;;;;59.03;29.40;;;-5.70;1.00;;;;;;4867699;28;20627;-83
2021/03/21 00:45:42;;;;;;;66.90;29.50;;;-5.70;1.00;;;;;;4876338;28;20590;-82
2021/03/21 00:48:10;;;;;;;62.43;28.20;;;-5.70;99.90;;;;;;4865993;28;20650;-81
2021/03/21 00:50:35;;;;;;;50.73;25.87;;;-5.70;99.90;;;;;;4889875;28;20664;-82
2021/03/21 00:52:57;;;;;;;53.73;25.87;;;-5.80;99.90;;;;;;4847462;28;20682;-82
2021/03/21 00:55:19;;;;;;;51.47;25.47;;;-5.80;99.90;;;;;;4892007;28;20607;-82
2021/03/21 00:57:42;;;;;;;45.13;23.97;;;-5.80;1.00;;;;;;4877789;28;20657;-83
2021/03/21 01:00:06;;;;;;;53.03;24.37;;;-5.70;1.00;;;;;;4879435;28;21148;-83
2021/03/21 01:02:28;;;;;;;53.97;24.00;;;-5.70;1.00;;;;;;4860845;28;20652;-83
2021/03/21 01:04:50;;;;;;;47.27;21.73;;;-5.60;99.90;;;;;;4898928;28;20679;-82
2021/03/21 01:07:14;;;;;;;43.77;19.97;;;-5.50;99.90;;;;;;4893627;28;20684;-82
2021/03/21 01:09:36;;;;;;;43.67;22.33;;;-5.40;1.00;;;;;;4879582;28;20614;-82
2021/03/21 01:11:58;;;;;;;48.50;22.70;;;-5.40;1.00;;;;;;4899220;28;20654;-82
2021/03/21 01:14:20;;;;;;;42.00;20.53;;;-5.40;1.00;;;;;;4892401;28;20631;-82
2021/03/21 01:16:43;;;;;;;44.17;21.87;;;-5.40;99.90;;;;;;4885355;28;20610;-82
2021/03/21 01:19:08;;;;;;;45.73;22.57;;;-5.40;99.90;;;;;;4862609;28;20630;-82
2021/03/21 01:21:32;;;;;;;41.57;21.37;;;-5.40;99.90;;;;;;4847303;28;21173;-81
2021/03/21 01:23:55;;;;;;;43.67;21.60;;;-5.40;1.00;;;;;;4898198;28;20613;-82
2021/03/21 01:26:20;;;;;;;43.90;21.67;;;-5.40;1.00;;;;;;4892901;28;20613;-79
2021/03/21 01:28:43;;;;;;;42.20;20.03;;;-5.40;99.90;;;;;;4880832;28;20660;-81
2021/03/21 01:31:08;;;;;;;42.23;20.17;;;-5.30;99.90;;;;;;4877511;28;21017;-81
2021/03/21 01:33:32;;;;;;;43.60;20.03;;;-5.30;99.90;;;;;;4868513;28;21064;-82
2021/03/21 01:35:55;;;;;;;46.37;22.17;;;-5.30;99.90;;;;;;4879116;28;20984;-81
2021/03/21 01:38:18;;;;;;;47.87;21.83;;;-5.30;99.90;;;;;;4865434;28;21183;-81
2021/03/21 01:40:42;;;;;;;47.57;22.80;;;-5.30;99.90;;;;;;4855341;28;20661;-81
2021/03/21 01:43:05;;;;;;;48.40;24.17;;;-5.30;99.90;;;;;;4879913;28;20618;-82
2021/03/21 01:45:40;;;;;;;53.87;25.90;;;-5.30;1.00;;;;;;4896997;28;20687;-82
2021/03/21 01:48:06;;;;;;;58.57;27.80;;;-5.40;1.00;;;;;;4896198;28;20674;-82
2021/03/21 01:50:34;;;;;;;56.03;26.57;;;-5.40;1.00;;;;;;4879036;28;21364;-81
2021/03/21 01:52:56;;;;;;;52.20;26.47;;;-5.40;1.00;;;;;;4878935;28;20683;-80
2021/03/21 01:55:19;;;;;;;50.73;26.27;;;-5.40;99.90;;;;;;4874128;28;21021;-81
2021/03/21 01:57:44;;;;;;;59.33;25.53;;;-5.40;99.90;;;;;;4888862;28;20623;-82
2021/03/21 02:00:09;;;;;;;54.20;25.10;;;-5.40;99.90;;;;;;4878759;28;20672;-81
2021/03/21 02:02:32;;;;;;;49.77;23.87;;;-5.40;99.90;;;;;;4854116;28;21151;-81
2021/03/21 02:04:54;;;;;;;42.83;22.43;;;-5.40;99.90;;;;;;4896349;28;20617;-81
2021/03/21 02:07:39;;;;;;;40.57;21.40;;;-5.50;99.90;;;;;;4888974;28;20614;-81
2021/03/21 02:10:11;;;;;;;50.47;24.67;;;-5.50;99.90;;;;;;4856305;28;20685;-81
2021/03/21 02:12:41;;;;;;;46.93;22.73;;;-5.50;99.90;;;;;;4895685;28;21028;-82
2021/03/21 02:15:12;;;;;;;54.70;25.30;;;-5.60;99.90;;;;;;4851498;28;20686;-81
2021/03/21 02:17:40;;;;;;;47.03;23.43;;;-5.50;99.90;;;;;;4893353;28;20640;-82
2021/03/21 02:20:43;;;;;;;45.10;23.87;;;-5.60;99.90;;;;;;4896285;28;20613;-82
2021/03/21 02:23:11;;;;;;;51.37;24.07;;;-5.60;1.00;;;;;;4860865;28;20696;-83
2021/03/21 02:26:08;;;;;;;47.20;23.37;;;-5.60;1.00;;;;;;4844152;28;20691;-81
2021/03/21 02:29:03;;;;;;;43.17;21.63;;;-5.70;1.00;;;;;;4844918;28;20713;-82
2021/03/21 02:31:29;;;;;;;46.17;21.57;;;-5.70;27.70;;;;;;4854910;28;20681;-82
2021/03/21 02:33:57;;;;;;;46.03;22.33;;;-5.70;99.90;;;;;;4895583;28;20671;-81
2021/03/21 02:36:24;;;;;;;43.50;22.77;;;-5.70;99.90;;;;;;4887951;28;20712;-78
2021/03/21 02:38:52;;;;;;;46.30;21.37;;;-5.70;99.90;;;;;;4878525;28;20599;-82
2021/03/21 02:41:18;;;;;;;42.23;21.00;;;-5.60;99.90;;;;;;4831333;28;20624;-82
2021/03/21 02:43:42;;;;;;;33.73;18.83;;;-5.60;1.00;;;;;;4862426;28;20680;-81
2021/03/21 02:46:10;;;;;;;38.83;19.60;;;-5.60;99.90;;;;;;4850749;28;20620;-81
2021/03/21 02:48:39;;;;;;;36.83;19.47;;;-5.70;99.90;;;;;;4878929;28;20658;-80
2021/03/21 02:51:06;;;;;;;36.47;19.87;;;-5.60;99.90;;;;;;4878432;28;20680;-82
2021/03/21 02:53:34;;;;;;;39.27;20.27;;;-5.60;99.90;;;;;;4897164;28;20659;-82
2021/03/21 02:56:01;;;;;;;38.87;19.03;;;-5.70;99.90;;;;;;4830454;28;20641;-82
2021/03/21 02:58:27;;;;;;;31.60;18.10;;;-5.70;99.90;;;;;;4865809;28;20611;-82
2021/03/21 03:00:55;;;;;;;36.87;19.20;;;-5.70;1.00;;;;;;4891948;28;20974;-82
2021/03/21 03:03:21;;;;;;;38.00;18.57;;;-5.80;1.00;;;;;;4877842;28;20635;-81
2021/03/21 03:05:49;;;;;;;31.93;18.03;;;-5.80;1.00;;;;;;4894593;28;21038;-82
2021/03/21 03:08:16;;;;;;;33.73;18.23;;;-5.80;1.00;;;;;;4877677;28;21056;-83
2021/03/21 03:10:43;;;;;;;34.03;17.87;;;-5.90;1.00;;;;;;4865118;28;20654;-81
2021/03/21 03:13:09;;;;;;;32.73;18.17;;;-6.00;1.00;;;;;;4846632;28;21065;-82
2021/03/21 03:15:32;;;;;;;34.60;18.40;;;-6.00;42.10;;;;;;4887921;28;20610;-80
2021/03/21 03:18:02;;;;;;;30.73;17.10;;;-6.00;99.90;;;;;;4877660;28;20641;-82
2021/03/21 03:20:35;;;;;;;27.93;14.40;;;-6.00;99.90;;;;;;4877265;28;20591;-82
2021/03/21 03:23:01;;;;;;;26.97;14.70;;;-6.00;99.90;;;;;;4844668;28;20627;-82
2021/03/21 03:25:29;;;;;;;22.87;13.40;;;-6.00;1.00;;;;;;4845497;28;21212;-82
2021/03/21 03:28:03;;;;;;;23.33;12.90;;;-5.90;1.00;;;;;;4877885;28;20732;-82
2021/03/21 03:30:29;;;;;;;22.57;12.60;;;-6.00;99.90;;;;;;4880723;28;21028;-83
2021/03/21 03:32:53;;;;;;;19.17;11.07;;;-5.90;1.00;;;;;;4855100;28;21050;-83
2021/03/21 03:35:17;;;;;;;23.70;12.17;;;-5.90;1.00;;;;;;4877741;28;20623;-80
2021/03/21 03:37:39;;;;;;;19.50;11.20;;;-5.90;99.90;;;;;;4877724;28;20658;-79
2021/03/21 03:40:03;;;;;;;22.60;12.60;;;-5.80;19.50;;;;;;4865392;28;20624;-81
2021/03/21 03:42:36;;;;;;;18.00;10.57;;;-5.80;1.00;;;;;;4866708;28;20619;-83
2021/03/21 03:45:06;;;;;;;20.50;11.23;;;-5.80;1.00;;;;;;4878106;28;20594;-81
2021/03/21 03:47:48;;;;;;;20.97;10.93;;;-5.80;1.00;;;;;;4887755;28;21179;-82
2021/03/21 03:50:18;;;;;;;18.30;10.17;;;-5.80;99.90;;;;;;4877642;28;20613;-83
2021/03/21 03:52:51;;;;;;;16.50;9.40;;;-5.80;99.90;;;;;;4894519;28;20626;-82
2021/03/21 03:55:22;;;;;;;17.20;9.80;;;-5.80;99.90;;;;;;4871843;28;20623;-81
2021/03/21 03:57:50;;;;;;;16.27;8.73;;;-5.80;1.00;;;;;;4845426;28;20628;-82
2021/03/21 04:00:24;;;;;;;14.57;9.30;;;-5.80;1.00;;;;;;4889292;28;20609;-82
2021/03/21 04:03:00;;;;;;;17.10;8.67;;;-5.80;1.00;;;;;;4878534;28;20582;-82
2021/03/21 04:05:32;;;;;;;14.10;7.83;;;-5.80;1.00;;;;;;4893973;28;20570;-83
2021/03/21 04:08:02;;;;;;;12.90;7.47;;;-5.80;1.00;;;;;;4867685;28;20663;-82
2021/03/21 04:10:31;;;;;;;13.57;8.07;;;-5.70;1.00;;;;;;4859653;28;20665;-82
2021/03/21 04:13:05;;;;;;;11.83;7.30;;;-5.70;99.90;;;;;;4885927;28;20598;-82
2021/03/21 04:15:32;;;;;;;11.83;7.40;;;-5.60;99.90;;;;;;4887908;28;20585;-82
2021/03/21 04:17:58;;;;;;;12.03;7.07;;;-5.70;99.90;;;;;;4876752;28;21300;-82
2021/03/21 04:20:24;;;;;;;11.47;6.53;;;-5.70;99.90;;;;;;4876664;28;20622;-82
2021/03/21 04:22:55;;;;;;;10.93;6.50;;;-5.70;99.90;;;;;;4880623;28;20669;-84
2021/03/21 04:25:20;;;;;;;10.20;5.90;;;-5.80;99.90;;;;;;4876985;28;20635;-81
2021/03/21 04:27:50;;;;;;;8.43;5.27;;;-5.70;99.90;;;;;;4867739;28;20635;-81
2021/03/21 04:30:16;;;;;;;9.03;6.47;;;-5.70;99.90;;;;;;4858762;28;20616;-82
2021/03/21 04:32:42;;;;;;;9.70;6.50;;;-5.70;99.90;;;;;;4842224;28;20632;-82
2021/03/21 04:35:11;;;;;;;8.43;5.80;;;-5.70;99.90;;;;;;4889775;28;21425;-83
2021/03/21 04:37:34;;;;;;;7.50;5.17;;;-5.70;99.90;;;;;;4899742;28;20637;-82
2021/03/21 04:39:57;;;;;;;6.57;4.23;;;-5.60;99.90;;;;;;4880623;28;21225;-82
2021/03/21 04:42:22;;;;;;;9.40;5.27;;;-5.40;99.90;;;;;;4865167;28;21096;-78
2021/03/21 04:44:50;;;;;;;5.97;3.93;;;-5.30;99.90;;;;;;4881582;28;20603;-81
2021/03/21 04:47:17;;;;;;;8.80;5.60;;;-5.10;29.50;;;;;;4863095;28;20658;-82
2021/03/21 04:49:39;;;;;;;7.97;5.00;;;-4.90;1.00;;;;;;4846787;28;20713;-80
2021/03/21 04:52:10;;;;;;;6.23;4.30;;;-4.70;1.00;;;;;;4899374;28;20687;-82
2021/03/21 04:54:38;;;;;;;7.37;4.57;;;-4.50;1.00;;;;;;4877694;28;20699;-82
2021/03/21 04:57:09;;;;;;;8.90;4.87;;;-4.40;1.00;;;;;;4863438;28;20619;-82
2021/03/21 04:59:35;;;;;;;8.80;4.63;;;-4.20;1.00;;;;;;4879562;28;20587;-80
2021/03/21 05:02:05;;;;;;;6.47;3.70;;;-4.10;1.00;;;;;;4891980;28;20978;-82
2021/03/21 05:04:32;;;;;;;6.17;4.07;;;-3.90;1.00;;;;;;4880242;28;21188;-83
2021/03/21 05:06:58;;;;;;;10.37;4.77;;;-3.80;1.00;;;;;;4878724;28;20622;-83
2021/03/21 05:09:24;;;;;;;8.63;4.27;;;-3.60;1.00;;;;;;4879184;28;21368;-82
2021/03/21 05:11:53;;;;;;;5.00;3.30;;;-3.60;1.00;;;;;;4863578;28;20623;-83
2021/03/21 05:14:25;;;;;;;5.00;3.30;;;-3.40;1.00;;;;;;4881065;28;20660;-84
2021/03/21 05:17:01;;;;;;;5.63;3.60;;;-3.40;1.00;;;;;;4881879;28;20628;-83
2021/03/21 05:19:31;;;;;;;4.80;3.27;;;-3.30;1.00;;;;;;4861372;28;20623;-80
2021/03/21 05:22:06;;;;;;;5.03;3.30;;;-3.20;1.00;;;;;;4845987;28;20636;-83
2021/03/21 05:24:36;;;;;;;6.30;3.70;;;-3.20;1.00;;;;;;4880777;28;21237;-83
2021/03/21 05:27:03;;;;;;;4.83;3.10;;;-3.10;1.00;;;;;;4864120;28;20653;-83
2021/03/21 05:29:39;;;;;;;3.40;2.97;;;-3.00;1.00;;;;;;4874351;28;20758;-82
2021/03/21 05:32:04;;;;;;;5.30;3.33;;;-3.00;1.00;;;;;;4863069;28;21238;-82
2021/03/21 05:34:26;;;;;;;4.30;3.10;;;-2.90;1.00;;;;;;4867843;28;20680;-86
2021/03/21 05:37:01;;;;;;;6.17;3.33;;;-2.80;1.00;;;;;;4875322;28;20643;-80
2021/03/21 05:39:42;;;;;;;8.37;3.70;;;-2.70;1.00;;;;;;4861036;28;21195;-81
2021/03/21 05:42:26;;;;;;;3.90;2.90;;;-2.60;1.00;;;;;;4873524;28;20640;-83
2021/03/21 05:45:21;;;;;;;4.93;3.53;;;-2.50;1.00;;;;;;4879983;28;21197;-83
2021/03/21 05:48:22;;;;;;;3.80;2.70;;;-2.40;1.00;;;;;;4855700;28;20631;-79
2021/03/21 05:51:16;;;;;;;3.50;2.33;;;-2.30;1.00;;;;;;4877586;28;20649;-81
2021/03/21 05:54:32;;;;;;;4.30;2.63;;;-2.20;1.00;;;;;;4868273;28;20684;-82
2021/03/21 05:57:14;;;;;;;4.10;3.23;;;-2.10;1.00;;;;;;4861521;28;20668;-81
2021/03/21 06:00:07;;;;;;;5.30;2.70;;;-2.00;1.00;;;;;;4879284;28;20619;-81
2021/03/21 06:02:54;;;;;;;4.43;3.20;;;-1.90;1.00;;;;;;4839848;28;20622;-81
2021/03/21 06:05:51;;;;;;;5.63;3.00;;;-1.80;1.00;;;;;;4860512;28;20680;-80
2021/03/21 06:08:30;;;;;;;4.63;3.03;;;-1.70;1.00;;;;;;4878911;28;20640;-81
2021/03/21 06:11:24;;;;;;;5.10;2.70;;;-1.60;1.00;;;;;;4860276;28;20623;-81
2021/03/21 06:13:59;;;;;;;3.30;2.83;;;-1.50;1.00;;;;;;4882222;28;20582;-83
2021/03/21 06:16:43;;;;;;;3.70;2.70;;;-1.50;1.00;;;;;;4865914;28;20663;-80
2021/03/21 06:19:17;;;;;;;4.80;2.83;;;-1.50;1.00;;;;;;4876483;28;20699;-80
2021/03/21 06:21:59;;;;;;;4.03;2.60;;;-1.50;1.00;;;;;;4875728;28;20639;-80
2021/03/21 06:24:31;;;;;;;5.00;3.23;;;-1.40;1.00;;;;;;4846822;28;20664;-79
2021/03/21 06:27:13;;;;;;;4.30;2.73;;;-1.40;1.00;;;;;;4891781;28;20578;-83
2021/03/21 06:30:17;;;;;;;4.00;2.70;;;-1.40;1.00;;;;;;4843714;28;20668;-83
2021/03/21 06:32:56;;;;;;;4.77;2.60;;;-1.40;1.00;;;;;;4806394;28;20675;-84
2021/03/21 06:35:44;;;;;;;4.37;2.87;;;-1.40;1.00;;;;;;4860067;28;20611;-86
2021/03/21 06:38:34;;;;;;;4.27;2.50;;;-1.30;1.00;;;;;;4880763;28;20609;-81
2021/03/21 06:41:21;;;;;;;3.53;2.50;;;-1.30;1.00;;;;;;4877331;28;20693;-80
2021/03/21 06:44:15;;;;;;;4.50;2.60;;;-1.20;1.00;;;;;;4881970;28;20574;-80
2021/03/21 06:47:19;;;;;;;6.13;3.00;;;-1.20;1.00;;;;;;4859146;28;20623;-81
2021/03/21 06:50:01;;;;;;;4.57;2.77;;;-1.00;99.90;;;;;;4843036;28;20727;-79
2021/03/21 06:52:35;;;;;;;3.50;2.20;;;-0.90;99.90;;;;;;4896286;28;20651;-80
2021/03/21 06:55:04;;;;;;;3.80;2.50;;;-0.80;99.90;;;;;;4880838;28;20666;-81
2021/03/21 06:57:57;;;;;;;3.33;2.60;;;-0.80;99.90;;;;;;4866203;28;21179;-80
2021/03/21 07:00:56;;;;;;;5.00;2.87;;;-0.70;99.90;;;;;;4876960;28;20639;-77
2021/03/21 07:04:18;;;;;;;5.70;2.93;;;-0.60;99.90;;;;;;4861257;28;20982;-80
2021/03/21 07:07:26;;;;;;;5.97;3.13;;;-0.50;99.90;;;;;;4859530;28;20632;-79
2021/03/21 07:10:29;;;;;;;3.90;2.40;;;-0.40;99.90;;;;;;4856294;28;21030;-82
2021/03/21 07:13:43;;;;;;;4.97;3.20;;;-0.40;99.90;;;;;;4871045;28;21200;-81
2021/03/21 07:16:56;;;;;;;5.27;2.90;;;-0.30;99.90;;;;;;4844399;28;20636;-80
2021/03/21 07:19:57;;;;;;;2.47;2.20;;;-0.30;99.90;;;;;;4863451;28;20618;-82
2021/03/21 07:23:05;;;;;;;5.23;2.60;;;-0.30;99.90;;;;;;4894818;28;20574;-80
2021/03/21 07:25:54;;;;;;;3.17;2.40;;;-0.20;99.90;;;;;;4877713;28;20907;-86
2021/03/21 07:28:43;;;;;;;3.90;2.40;;;-0.20;99.90;;;;;;4847473;28;20650;-80
2021/03/21 07:31:20;;;;;;;3.70;2.40;;;-0.10;99.90;;;;;;4877105;28;20566;-82
2021/03/21 07:34:07;;;;;;;4.00;2.70;;;0.00;99.90;;;;;;4880052;28;20594;-80
2021/03/21 07:36:37;;;;;;;3.50;2.83;;;0.00;99.90;;;;;;4877027;28;20704;-81
2021/03/21 07:39:23;;;;;;;5.17;2.90;;;0.10;99.90;;;;;;4858200;28;20626;-80
2021/03/21 07:42:02;;;;;;;5.27;3.40;;;0.20;99.90;;;;;;4876706;28;20624;-77
2021/03/21 07:45:02;;;;;;;2.83;2.10;;;0.20;99.90;;;;;;4860775;28;21282;-83
2021/03/21 07:47:40;;;;;;;4.33;2.90;;;0.30;99.90;;;;;;4880048;28;21156;-79
2021/03/21 07:50:21;;;;;;;4.20;2.50;;;0.40;99.90;;;;;;4865845;28;20692;-82
2021/03/21 07:52:52;;;;;;;3.40;2.63;;;0.60;99.90;;;;;;4860325;28;21005;-81
2021/03/21 07:55:22;;;;;;;2.97;2.03;;;0.90;99.90;;;;;;4859050;28;20992;-80
2021/03/21 07:57:57;;;;;;;2.67;2.40;;;1.10;99.90;;;;;;4867988;28;20670;-79
2021/03/21 08:00:21;;;;;;;2.30;2.10;;;1.50;99.90;;;;;;4842604;28;20609;-80
2021/03/21 08:02:43;;;;;;;3.13;2.00;;;1.50;99.90;;;;;;4865034;28;20630;-82
2021/03/21 08:05:12;;;;;;;2.63;1.90;;;1.50;99.90;;;;;;4872768;28;20194;-80
2021/03/21 08:07:38;;;;;;;3.80;2.60;;;1.60;99.90;;;;;;4859348;28;21192;-84
2021/03/21 08:10:01;;;;;;;2.07;1.87;;;1.60;99.90;;;;;;4858708;28;20213;-81
2021/03/21 08:12:35;;;;;;;4.43;1.97;;;1.50;99.90;;;;;;4858096;28;20677;-86
2021/03/21 08:15:05;;;;;;;3.60;2.53;;;1.60;99.90;;;;;;4885770;28;20585;-81
2021/03/21 08:17:32;;;;;;;2.07;1.83;;;1.40;99.90;;;;;;4860665;28;21009;-84
2021/03/21 08:19:59;;;;;;;3.23;2.27;;;1.50;99.90;;;;;;4884441;28;20614;-82
2021/03/21 08:22:24;;;;;;;2.87;2.03;;;1.40;99.90;;;;;;4865519;28;20623;-80
2021/03/21 08:24:48;;;;;;;2.40;1.87;;;1.30;99.90;;;;;;4842300;28;20620;-87
2021/03/21 08:27:22;;;;;;;3.57;2.23;;;1.30;99.90;;;;;;4864332;28;20189;-83
2021/03/21 08:29:57;;;;;;;3.27;2.13;;;1.30;99.90;;;;;;4859349;28;20667;-80
2021/03/21 08:32:19;;;;;;;3.70;2.60;;;1.30;99.90;;;;;;4876697;28;20582;-82
2021/03/21 08:34:44;;;;;;;4.43;2.40;;;1.30;99.90;;;;;;4860135;28;20623;-81
2021/03/21 08:37:28;;;;;;;4.87;2.50;;;1.30;99.90;;;;;;4872648;28;21273;-83
2021/03/21 08:39:52;;;;;;;3.10;2.27;;;1.30;99.90;;;;;;4859685;28;20635;-79
2021/03/21 08:42:44;;;;;;;3.43;2.37;;;1.30;99.90;;;;;;4860391;28;20639;-80
2021/03/21 08:45:28;;;;;;;5.03;2.83;;;1.30;99.90;;;;;;4876758;28;21196;-81
2021/03/21 08:48:24;;;;;;;3.80;2.40;;;1.60;99.90;;;;;;4880662;28;20663;-83
2021/03/21 08:50:49;;;;;;;4.97;2.50;;;1.90;99.90;;;;;;4865872;28;20236;-84
2021/03/21 08:53:35;;;;;;;3.27;2.13;;;2.00;99.90;;;;;;4876432;28;20591;-81
2021/03/21 08:56:25;;;;;;;3.10;2.30;;;2.00;99.90;;;;;;4858565;28;20673;-80
2021/03/21 08:58:50;;;;;;;2.70;1.70;;;2.00;99.90;;;;;;4814931;28;20631;-84
2021/03/21 09:01:15;;;;;;;2.97;2.23;;;2.00;99.90;;;;;;4881203;28;21167;-86
2021/03/21 09:03:37;;;;;;;2.60;2.27;;;1.90;99.90;;;;;;4869976;28;21219;-82
2021/03/21 09:06:01;;;;;;;3.50;2.40;;;1.70;99.90;;;;;;4841657;28;20712;-79
2021/03/21 09:08:24;;;;;;;4.37;2.90;;;1.50;99.90;;;;;;4862248;28;20631;-83
2021/03/21 09:10:52;;;;;;;3.23;2.67;;;1.50;1.00;;;;;;4894306;28;20645;-86
2021/03/21 09:13:21;;;;;;;2.97;2.67;;;1.40;1.00;;;;;;4886345;28;21011;-81
2021/03/21 09:15:46;;;;;;;2.60;2.40;;;1.30;1.00;;;;;;4858416;28;20981;-85
2021/03/21 09:18:24;;;;;;;4.80;3.10;;;1.20;1.00;;;;;;4883779;28;20613;-84
2021/03/21 09:21:14;;;;;;;5.67;3.13;;;1.10;1.00;;;;;;4894648;28;21190;-82
2021/03/21 09:23:43;;;;;;;5.40;3.03;;;1.10;1.00;;;;;;4897410;28;20679;-86
2021/03/21 09:26:24;;;;;;;3.20;2.57;;;1.00;1.00;;;;;;4845382;28;20628;-82
2021/03/21 09:28:51;;;;;;;3.10;2.30;;;1.00;1.00;;;;;;4862826;28;20626;-83
2021/03/21 09:31:15;;;;;;;3.30;2.73;;;1.00;1.00;;;;;;4874874;28;20676;-78
2021/03/21 09:33:42;;;;;;;2.50;2.30;;;0.90;1.00;;;;;;4880430;28;20653;-80
2021/03/21 09:36:15;;;;;;;4.80;2.77;;;0.80;1.00;;;;;;4865631;28;20730;-84
2021/03/21 09:38:45;;;;;;;3.23;2.60;;;0.80;1.00;;;;;;4890460;28;20658;-84
2021/03/21 09:41:11;;;;;;;5.17;3.10;;;0.80;1.00;;;;;;4886826;28;20656;-87
2021/03/21 09:43:36;;;;;;;3.13;2.60;;;0.80;1.00;;;;;;4868089;28;20613;-82
2021/03/21 09:46:23;;;;;;;4.50;2.97;;;0.70;1.00;;;;;;4898333;28;20652;-83
2021/03/21 09:48:54;;;;;;;5.30;2.87;;;0.60;1.00;;;;;;4890386;28;20601;-81
2021/03/21 09:51:28;;;;;;;3.87;3.07;;;0.50;1.00;;;;;;4878786;28;20650;-79
2021/03/21 09:54:05;;;;;;;3.70;3.17;;;0.50;1.00;;;;;;4843601;28;21079;-78
2021/03/21 09:56:38;;;;;;;5.70;3.57;;;0.40;1.00;;;;;;4896339;28;20632;-81
2021/03/21 09:59:07;;;;;;;5.87;3.03;;;0.50;1.00;;;;;;4879263;28;20622;-84
2021/03/21 10:01:38;;;;;;;4.13;3.07;;;0.50;1.00;;;;;;4876598;28;20720;-84
2021/03/21 10:04:05;;;;;;;6.33;3.70;;;0.50;1.00;;;;;;4879196;28;21116;-80
2021/03/21 10:06:36;;;;;;;6.03;3.23;;;0.40;1.00;;;;;;4897570;28;21216;-83
2021/03/21 10:09:04;;;;;;;4.33;3.27;;;0.40;1.00;;;;;;4880123;28;20636;-88
2021/03/21 10:11:30;;;;;;;4.43;3.17;;;0.40;1.00;;;;;;4897832;28;21011;-86
2021/03/21 10:13:52;;;;;;;4.77;3.50;;;0.30;1.00;;;;;;4879914;28;21073;-80
2021/03/21 10:16:31;;;;;;;8.40;6.17;;;0.30;1.00;;;;;;4897451;28;20632;-84
2021/03/21 10:18:55;;;;;;;4.27;3.17;;;0.30;1.00;;;;;;4897844;28;20603;-84
2021/03/21 10:21:39;;;;;;;5.73;4.27;;;0.30;1.00;;;;;;4879361;28;20748;-77
2021/03/21 10:24:37;;;;;;;5.93;3.87;;;0.30;1.00;;;;;;4880134;28;20275;-76
2021/03/21 10:27:37;;;;;;;6.30;3.60;;;0.30;1.00;;;;;;4878212;28;20615;-83
2021/03/21 10:30:12;;;;;;;2.90;2.60;;;0.40;1.00;;;;;;4862943;28;21218;-82
2021/03/21 10:32:37;;;;;;;4.33;3.13;;;0.40;1.00;;;;;;4878729;28;20636;-84
2021/03/21 10:35:00;;;;;;;5.30;3.10;;;0.50;1.00;;;;;;4861402;28;20616;-82
2021/03/21 10:38:03;;;;;;;4.93;3.43;;;0.60;1.00;;;;;;4878451;28;20654;-82
2021/03/21 10:40:43;;;;;;;6.20;3.57;;;0.60;1.00;;;;;;4876193;28;21053;-82
2021/03/21 10:43:10;;;;;;;4.27;3.10;;;0.60;1.00;;;;;;4860118;28;21012;-79
2021/03/21 10:45:52;;;;;;;5.30;3.47;;;0.60;1.00;;;;;;4864551;28;21208;-80
2021/03/21 10:48:47;;;;;;;3.50;2.80;;;0.60;1.00;;;;;;4879803;28;20615;-79
2021/03/21 10:51:12;;;;;;;6.23;3.83;;;0.60;1.00;;;;;;4883448;28;20702;-84
2021/03/21 10:53:37;;;;;;;4.70;3.50;;;0.60;1.00;;;;;;4878823;28;21065;-85
2021/03/21 10:56:21;;;;;;;4.77;3.77;;;0.60;1.00;;;;;;4892183;28;20619;-80
2021/03/21 10:59:22;;;;;;;3.93;2.60;;;0.60;1.00;;;;;;4875444;28;20630;-84
2021/03/21 11:01:46;;;;;;;3.43;2.77;;;0.70;1.00;;;;;;4845131;28;20998;-77
2021/03/21 11:04:30;;;;;;;3.83;3.23;;;0.80;1.00;;;;;;4888263;28;20617;-77
2021/03/21 11:07:02;;;;;;;3.83;3.30;;;0.80;1.00;;;;;;4872900;28;20945;-79
2021/03/21 11:09:31;;;;;;;4.10;2.97;;;0.80;1.00;;;;;;4841270;28;20640;-79
2021/03/21 11:11:54;;;;;;;3.63;2.87;;;0.70;1.00;;;;;;4883048;28;21290;-82
2021/03/21 11:14:21;;;;;;;4.03;2.97;;;0.70;1.00;;;;;;4875568;28;20626;-81
2021/03/21 11:16:50;;;;;;;4.57;3.10;;;0.70;1.00;;;;;;4888549;28;21148;-82
2021/03/21 11:19:15;;;;;;;4.80;3.40;;;0.70;1.00;;;;;;4877118;28;20594;-82
2021/03/21 11:21:39;;;;;;;4.77;3.60;;;0.80;1.00;;;;;;4871410;28;20649;-82
2021/03/21 11:24:04;;;;;;;5.47;3.63;;;0.90;1.00;;;;;;4865149;28;20711;-81
2021/03/21 11:26:34;;;;;;;5.77;3.60;;;1.10;1.00;;;;;;4893625;28;20613;-82
2021/03/21 11:29:11;;;;;;;3.27;2.83;;;1.30;1.00;;;;;;4876752;28;20622;-84
2021/03/21 11:31:35;;;;;;;4.47;3.27;;;1.60;1.00;;;;;;4867666;28;20810;-77
2021/03/21 11:33:57;;;;;;;4.03;2.90;;;1.70;1.00;;;;;;4862022;28;20228;-83
2021/03/21 11:36:24;;;;;;;5.13;3.23;;;1.90;1.00;;;;;;4883923;28;20205;-79
2021/03/21 11:38:48;;;;;;;4.53;3.10;;;2.00;1.00;;;;;;4877689;28;20614;-78
2021/03/21 11:41:23;;;;;;;3.93;2.80;;;2.10;1.00;;;;;;4872602;28;20202;-84
2021/03/21 11:43:46;;;;;;;3.67;3.13;;;2.00;1.00;;;;;;4876303;28;20639;-82
2021/03/21 11:46:14;;;;;;;5.50;3.23;;;1.90;1.00;;;;;;4877988;28;21247;-81
2021/03/21 11:48:38;;;;;;;3.57;2.90;;;1.90;1.00;;;;;;4896092;28;20598;-81
2021/03/21 11:51:02;;;;;;;4.43;2.90;;;1.90;1.00;;;;;;4879223;28;21174;-80
2021/03/21 11:53:29;;;;;;;4.30;3.40;;;2.00;1.00;;;;;;4866781;28;20592;-78
2021/03/21 11:55:54;;;;;;;3.47;3.10;;;2.00;1.00;;;;;;4863808;28;20624;-81
2021/03/21 11:58:21;;;;;;;5.50;3.40;;;2.20;1.00;;;;;;4877316;28;20597;-77
2021/03/21 12:00:54;;;;;;;5.03;3.47;;;2.10;1.00;;;;;;4838357;28;20635;-75
2021/03/21 12:03:21;;;;;;;4.57;2.93;;;2.00;1.00;;;;;;4872570;28;20638;-75
2021/03/21 12:05:56;;;;;;;3.53;3.03;;;2.00;1.00;;;;;;4850422;28;21011;-77
2021/03/21 12:08:25;;;;;;;4.63;3.47;;;1.90;1.00;;;;;;4875611;28;20571;-78
2021/03/21 12:10:47;;;;;;;4.50;3.60;;;1.90;1.00;;;;;;4870752;28;21199;-76
2021/03/21 12:13:31;;;;;;;4.67;3.17;;;1.90;1.00;;;;;;4865006;28;20202;-81
2021/03/21 12:15:55;;;;;;;4.90;3.33;;;2.00;1.00;;;;;;4861932;28;20622;-80
2021/03/21 12:18:19;;;;;;;5.37;3.37;;;2.00;1.00;;;;;;4889115;28;20247;-75
2021/03/21 12:20:45;;;;;;;5.77;3.13;;;2.30;1.00;;;;;;4856020;28;20201;-82
2021/03/21 12:23:21;;;;;;;4.73;3.50;;;2.20;1.00;;;;;;4880348;28;20185;-82
2021/03/21 12:25:43;;;;;;;6.53;3.53;;;2.30;1.00;;;;;;4876223;28;20273;-80
2021/03/21 12:28:14;;;;;;;5.57;3.53;;;2.40;1.00;;;;;;4877298;28;20201;-85
2021/03/21 12:30:42;;;;;;;5.00;3.30;;;2.50;1.00;;;;;;4892834;28;20204;-79
2021/03/21 12:33:29;;;;;;;4.23;3.30;;;2.40;1.00;;;;;;4857356;28;21321;-78
2021/03/21 12:35:52;;;;;;;3.67;3.30;;;2.40;1.00;;;;;;4857856;28;20257;-82
2021/03/21 12:38:29;;;;;;;4.23;3.30;;;2.40;1.00;;;;;;4858541;28;20610;-79
2021/03/21 12:40:52;;;;;;;3.70;2.90;;;2.40;1.00;;;;;;4880750;28;20177;-84
2021/03/21 12:43:24;;;;;;;4.23;3.33;;;2.40;1.00;;;;;;4876898;28;20594;-80
2021/03/21 12:46:01;;;;;;;4.33;3.03;;;2.40;1.00;;;;;;4857702;28;20194;-81
2021/03/21 12:48:24;;;;;;;3.07;2.83;;;2.50;1.00;;;;;;4856649;28;20189;-78
2021/03/21 12:50:49;;;;;;;2.73;2.43;;;2.60;1.00;;;;;;4891374;28;20293;-80
2021/03/21 12:53:18;;;;;;;3.67;3.13;;;2.70;1.00;;;;;;4893145;28;20184;-79
2021/03/21 12:55:40;;;;;;;3.87;3.00;;;2.80;1.00;;;;;;4895051;28;20193;-77
2021/03/21 12:58:03;;;;;;;3.73;2.80;;;2.70;1.00;;;;;;4897567;28;20230;-80
2021/03/21 13:00:28;;;;;;;5.10;3.40;;;2.60;1.00;;;;;;4877520;28;20239;-75
2021/03/21 13:02:52;;;;;;;5.33;3.80;;;2.60;1.00;;;;;;4876469;28;20231;-80
2021/03/21 13:05:22;;;;;;;3.90;3.50;;;2.60;1.00;;;;;;4877641;28;20280;-79
2021/03/21 13:07:45;;;;;;;3.60;3.30;;;2.60;1.00;;;;;;4879209;28;20248;-78
2021/03/21 13:10:08;;;;;;;5.77;3.40;;;2.70;1.00;;;;;;4878732;28;20229;-77
2021/03/21 13:12:31;;;;;;;3.67;3.33;;;2.60;1.00;;;;;;4861949;28;20189;-72
2021/03/21 13:14:54;;;;;;;5.17;3.43;;;2.50;1.00;;;;;;4859160;28;20502;-78